sensor_id;sensor_type;location;lat;lon;timestamp;P1;durP1;ratioP1;P2;durP2;ratioP2
12412;SDS011;13877;18.896;-99.222;2023-02-23T00:01:50;8.80;;;3.97;;
12412;SDS011;13877;18.896;-99.222;2023-02-23T00:04:16;10.85;;;4.15;;
12412;SDS011;13877;18.896;-99.222;2023-02-23T00:06:43;11.32;;;4.18;;
12412;SDS011;13877;18.896;-99.222;2023-02-23T00:09:11;8.48;;;3.10;;
12412;SDS011;13877;18.896;-99.222;2023-02-23T00:11:48;12.63;;;2.92;;
12412;SDS011;13877;18.896;-99.222;2023-02-23T00:14:26;9.60;;;3.00;;
12412;SDS011;13877;18.896;-99.222;2023-02-23T00:16:56;12.00;;;2.88;;
12412;SDS011;13877;18.896;-99.222;2023-02-23T00:19:24;15.75;;;3.50;;
12412;SDS011;13877;18.896;-99.222;2023-02-23T00:21:52;8.88;;;3.50;;
12412;SDS011;13877;18.896;-99.222;2023-02-23T00:24:19;13.48;;;3.20;;
12412;SDS011;13877;18.896;-99.222;2023-02-23T00:26:47;12.05;;;3.38;;
12412;SDS011;13877;18.896;-99.222;2023-02-23T00:29:16;8.52;;;3.50;;
12412;SDS011;13877;18.896;-99.222;2023-02-23T00:31:46;5.85;;;3.15;;
12412;SDS011;13877;18.896;-99.222;2023-02-23T00:34:14;10.82;;;3.20;;
12412;SDS011;13877;18.896;-99.222;2023-02-23T00:36:48;6.70;;;3.28;;
12412;SDS011;13877;18.896;-99.222;2023-02-23T00:39:18;17.55;;;3.10;;
12412;SDS011;13877;18.896;-99.222;2023-02-23T00:41:53;8.52;;;3.00;;
12412;SDS011;13877;18.896;-99.222;2023-02-23T00:44:21;8.00;;;3.17;;
12412;SDS011;13877;18.896;-99.222;2023-02-23T00:46:49;11.57;;;3.50;;
12412;SDS011;13877;18.896;-99.222;2023-02-23T00:49:17;11.73;;;3.75;;
12412;SDS011;13877;18.896;-99.222;2023-02-23T00:51:45;6.30;;;3.28;;
12412;SDS011;13877;18.896;-99.222;2023-02-23T00:54:13;7.30;;;3.50;;
12412;SDS011;13877;18.896;-99.222;2023-02-23T00:56:41;13.25;;;3.60;;
12412;SDS011;13877;18.896;-99.222;2023-02-23T00:59:09;9.02;;;3.13;;
12412;SDS011;13877;18.896;-99.222;2023-02-23T01:01:38;8.80;;;3.10;;
12412;SDS011;13877;18.896;-99.222;2023-02-23T01:04:11;18.95;;;3.45;;
12412;SDS011;13877;18.896;-99.222;2023-02-23T01:06:39;8.38;;;3.25;;
12412;SDS011;13877;18.896;-99.222;2023-02-23T01:09:08;6.53;;;3.22;;
12412;SDS011;13877;18.896;-99.222;2023-02-23T01:11:38;12.35;;;3.55;;
12412;SDS011;13877;18.896;-99.222;2023-02-23T01:14:13;6.05;;;2.22;;
12412;SDS011;13877;18.896;-99.222;2023-02-23T01:16:40;9.00;;;2.90;;
12412;SDS011;13877;18.896;-99.222;2023-02-23T01:19:07;11.00;;;2.70;;
12412;SDS011;13877;18.896;-99.222;2023-02-23T01:21:36;10.57;;;2.90;;
12412;SDS011;13877;18.896;-99.222;2023-02-23T01:24:05;9.90;;;2.97;;
12412;SDS011;13877;18.896;-99.222;2023-02-23T01:26:35;16.33;;;2.88;;
12412;SDS011;13877;18.896;-99.222;2023-02-23T01:29:11;12.13;;;3.70;;
12412;SDS011;13877;18.896;-99.222;2023-02-23T01:31:40;12.63;;;3.80;;
12412;SDS011;13877;18.896;-99.222;2023-02-23T01:34:09;13.48;;;4.15;;
12412;SDS011;13877;18.896;-99.222;2023-02-23T01:36:38;8.57;;;4.40;;
12412;SDS011;13877;18.896;-99.222;2023-02-23T01:39:07;12.73;;;4.18;;
12412;SDS011;13877;18.896;-99.222;2023-02-23T01:41:39;17.90;;;6.38;;
12412;SDS011;13877;18.896;-99.222;2023-02-23T01:46:40;25.05;;;7.07;;
12412;SDS011;13877;18.896;-99.222;2023-02-23T01:49:12;19.05;;;7.05;;
12412;SDS011;13877;18.896;-99.222;2023-02-23T01:51:47;17.90;;;6.72;;
12412;SDS011;13877;18.896;-99.222;2023-02-23T01:54:17;20.60;;;7.35;;
12412;SDS011;13877;18.896;-99.222;2023-02-23T01:56:49;28.15;;;7.43;;
12412;SDS011;13877;18.896;-99.222;2023-02-23T01:59:23;24.25;;;6.95;;
12412;SDS011;13877;18.896;-99.222;2023-02-23T02:01:58;34.17;;;8.75;;
12412;SDS011;13877;18.896;-99.222;2023-02-23T02:04:26;22.80;;;7.53;;
12412;SDS011;13877;18.896;-99.222;2023-02-23T02:06:58;19.75;;;7.28;;
12412;SDS011;13877;18.896;-99.222;2023-02-23T02:09:28;19.48;;;7.22;;
12412;SDS011;13877;18.896;-99.222;2023-02-23T02:12:02;19.48;;;7.78;;
12412;SDS011;13877;18.896;-99.222;2023-02-23T02:14:33;25.60;;;6.90;;
12412;SDS011;13877;18.896;-99.222;2023-02-23T02:25:55;23.55;;;6.80;;
12412;SDS011;13877;18.896;-99.222;2023-02-23T02:39:58;18.25;;;5.93;;
12412;SDS011;13877;18.896;-99.222;2023-02-23T02:48:30;15.70;;;5.05;;
12412;SDS011;13877;18.896;-99.222;2023-02-23T02:51:34;11.70;;;5.07;;
12412;SDS011;13877;18.896;-99.222;2023-02-23T02:54:25;12.45;;;5.32;;
12412;SDS011;13877;18.896;-99.222;2023-02-23T02:56:56;17.55;;;5.63;;
12412;SDS011;13877;18.896;-99.222;2023-02-23T02:59:27;14.20;;;5.35;;
12412;SDS011;13877;18.896;-99.222;2023-02-23T03:02:16;13.80;;;5.70;;
12412;SDS011;13877;18.896;-99.222;2023-02-23T03:05:17;18.75;;;5.40;;
12412;SDS011;13877;18.896;-99.222;2023-02-23T03:11:27;17.92;;;5.28;;
12412;SDS011;13877;18.896;-99.222;2023-02-23T03:17:46;15.02;;;5.10;;
12412;SDS011;13877;18.896;-99.222;2023-02-23T03:20:44;23.45;;;5.15;;
12412;SDS011;13877;18.896;-99.222;2023-02-23T03:32:49;15.48;;;4.93;;
12412;SDS011;13877;18.896;-99.222;2023-02-23T03:38:42;13.52;;;4.75;;
12412;SDS011;13877;18.896;-99.222;2023-02-23T03:41:32;18.88;;;5.57;;
12412;SDS011;13877;18.896;-99.222;2023-02-23T03:44:24;16.95;;;4.88;;
12412;SDS011;13877;18.896;-99.222;2023-02-23T03:47:16;28.52;;;6.65;;
12412;SDS011;13877;18.896;-99.222;2023-02-23T03:50:10;25.60;;;6.22;;
12412;SDS011;13877;18.896;-99.222;2023-02-23T03:53:03;17.38;;;5.45;;
12412;SDS011;13877;18.896;-99.222;2023-02-23T03:55:53;13.40;;;5.47;;
12412;SDS011;13877;18.896;-99.222;2023-02-23T03:58:45;29.75;;;5.90;;
12412;SDS011;13877;18.896;-99.222;2023-02-23T04:01:35;16.52;;;4.97;;
12412;SDS011;13877;18.896;-99.222;2023-02-23T04:04:22;15.38;;;5.43;;
12412;SDS011;13877;18.896;-99.222;2023-02-23T04:07:09;26.52;;;6.07;;
12412;SDS011;13877;18.896;-99.222;2023-02-23T04:09:59;13.52;;;5.20;;
12412;SDS011;13877;18.896;-99.222;2023-02-23T04:15:32;16.33;;;5.22;;
12412;SDS011;13877;18.896;-99.222;2023-02-23T04:18:04;16.88;;;6.47;;
12412;SDS011;13877;18.896;-99.222;2023-02-23T04:20:33;16.42;;;5.43;;
12412;SDS011;13877;18.896;-99.222;2023-02-23T04:22:59;23.25;;;5.95;;
12412;SDS011;13877;18.896;-99.222;2023-02-23T04:25:27;16.23;;;4.88;;
12412;SDS011;13877;18.896;-99.222;2023-02-23T04:27:55;23.35;;;4.70;;
12412;SDS011;13877;18.896;-99.222;2023-02-23T04:30:22;20.92;;;5.53;;
12412;SDS011;13877;18.896;-99.222;2023-02-23T04:32:54;12.52;;;5.38;;
12412;SDS011;13877;18.896;-99.222;2023-02-23T04:35:21;19.40;;;5.82;;
12412;SDS011;13877;18.896;-99.222;2023-02-23T04:37:48;18.88;;;5.18;;
12412;SDS011;13877;18.896;-99.222;2023-02-23T04:40:15;20.92;;;5.22;;
12412;SDS011;13877;18.896;-99.222;2023-02-23T04:42:42;11.32;;;4.65;;
12412;SDS011;13877;18.896;-99.222;2023-02-23T04:45:09;15.65;;;4.53;;
12412;SDS011;13877;18.896;-99.222;2023-02-23T04:47:36;18.90;;;5.47;;
12412;SDS011;13877;18.896;-99.222;2023-02-23T04:50:04;17.45;;;6.20;;
12412;SDS011;13877;18.896;-99.222;2023-02-23T04:52:31;22.23;;;5.47;;
12412;SDS011;13877;18.896;-99.222;2023-02-23T04:55:00;17.00;;;5.93;;
12412;SDS011;13877;18.896;-99.222;2023-02-23T04:57:26;29.00;;;6.88;;
12412;SDS011;13877;18.896;-99.222;2023-02-23T04:59:54;31.02;;;7.63;;
12412;SDS011;13877;18.896;-99.222;2023-02-23T05:02:21;19.05;;;6.43;;
12412;SDS011;13877;18.896;-99.222;2023-02-23T05:04:49;20.83;;;7.20;;
12412;SDS011;13877;18.896;-99.222;2023-02-23T05:07:16;23.25;;;5.55;;
12412;SDS011;13877;18.896;-99.222;2023-02-23T05:09:44;13.38;;;5.80;;
12412;SDS011;13877;18.896;-99.222;2023-02-23T05:12:12;23.92;;;6.18;;
12412;SDS011;13877;18.896;-99.222;2023-02-23T05:14:39;17.58;;;6.30;;
12412;SDS011;13877;18.896;-99.222;2023-02-23T05:17:06;24.95;;;6.25;;
12412;SDS011;13877;18.896;-99.222;2023-02-23T05:19:33;28.90;;;6.72;;
12412;SDS011;13877;18.896;-99.222;2023-02-23T05:22:00;21.90;;;6.78;;
12412;SDS011;13877;18.896;-99.222;2023-02-23T05:24:27;28.85;;;8.27;;
12412;SDS011;13877;18.896;-99.222;2023-02-23T05:26:53;26.45;;;9.73;;
12412;SDS011;13877;18.896;-99.222;2023-02-23T05:29:21;33.30;;;11.50;;
12412;SDS011;13877;18.896;-99.222;2023-02-23T05:31:48;27.33;;;9.80;;
12412;SDS011;13877;18.896;-99.222;2023-02-23T05:34:15;24.08;;;7.88;;
12412;SDS011;13877;18.896;-99.222;2023-02-23T05:36:42;21.92;;;6.68;;
12412;SDS011;13877;18.896;-99.222;2023-02-23T05:39:09;17.63;;;6.85;;
12412;SDS011;13877;18.896;-99.222;2023-02-23T05:41:36;26.33;;;6.47;;
12412;SDS011;13877;18.896;-99.222;2023-02-23T05:44:04;20.02;;;5.72;;
12412;SDS011;13877;18.896;-99.222;2023-02-23T05:46:31;17.25;;;5.85;;
12412;SDS011;13877;18.896;-99.222;2023-02-23T05:48:59;18.75;;;5.85;;
12412;SDS011;13877;18.896;-99.222;2023-02-23T05:51:27;14.00;;;5.47;;
12412;SDS011;13877;18.896;-99.222;2023-02-23T05:53:55;15.90;;;6.35;;
12412;SDS011;13877;18.896;-99.222;2023-02-23T05:56:22;15.82;;;5.18;;
12412;SDS011;13877;18.896;-99.222;2023-02-23T05:58:50;22.58;;;5.57;;
12412;SDS011;13877;18.896;-99.222;2023-02-23T06:01:19;10.80;;;5.10;;
12412;SDS011;13877;18.896;-99.222;2023-02-23T06:03:47;27.30;;;5.97;;
12412;SDS011;13877;18.896;-99.222;2023-02-23T06:06:14;14.27;;;5.80;;
12412;SDS011;13877;18.896;-99.222;2023-02-23T06:08:42;11.60;;;5.15;;
12412;SDS011;13877;18.896;-99.222;2023-02-23T06:11:09;16.92;;;5.15;;
12412;SDS011;13877;18.896;-99.222;2023-02-23T06:13:36;13.80;;;5.90;;
12412;SDS011;13877;18.896;-99.222;2023-02-23T06:16:03;20.65;;;5.53;;
12412;SDS011;13877;18.896;-99.222;2023-02-23T06:18:33;13.20;;;5.07;;
12412;SDS011;13877;18.896;-99.222;2023-02-23T06:21:00;18.70;;;5.35;;
12412;SDS011;13877;18.896;-99.222;2023-02-23T06:23:28;19.80;;;5.13;;
12412;SDS011;13877;18.896;-99.222;2023-02-23T06:25:56;17.52;;;5.97;;
12412;SDS011;13877;18.896;-99.222;2023-02-23T06:28:26;15.55;;;5.78;;
12412;SDS011;13877;18.896;-99.222;2023-02-23T06:30:53;20.73;;;6.50;;
12412;SDS011;13877;18.896;-99.222;2023-02-23T06:33:21;22.17;;;6.25;;
12412;SDS011;13877;18.896;-99.222;2023-02-23T06:35:49;14.52;;;6.28;;
12412;SDS011;13877;18.896;-99.222;2023-02-23T06:38:15;19.27;;;6.43;;
12412;SDS011;13877;18.896;-99.222;2023-02-23T06:40:43;16.65;;;6.45;;
12412;SDS011;13877;18.896;-99.222;2023-02-23T06:43:10;22.30;;;6.72;;
12412;SDS011;13877;18.896;-99.222;2023-02-23T06:45:37;16.63;;;5.97;;
12412;SDS011;13877;18.896;-99.222;2023-02-23T06:48:04;17.08;;;6.10;;
12412;SDS011;13877;18.896;-99.222;2023-02-23T06:50:32;18.70;;;5.90;;
12412;SDS011;13877;18.896;-99.222;2023-02-23T06:52:59;15.82;;;5.18;;
12412;SDS011;13877;18.896;-99.222;2023-02-23T06:55:26;14.10;;;5.93;;
12412;SDS011;13877;18.896;-99.222;2023-02-23T06:57:53;17.88;;;5.38;;
12412;SDS011;13877;18.896;-99.222;2023-02-23T07:00:20;11.68;;;4.53;;
12412;SDS011;13877;18.896;-99.222;2023-02-23T07:02:48;12.63;;;4.97;;
12412;SDS011;13877;18.896;-99.222;2023-02-23T07:05:15;14.45;;;5.65;;
12412;SDS011;13877;18.896;-99.222;2023-02-23T07:07:42;17.30;;;5.10;;
12412;SDS011;13877;18.896;-99.222;2023-02-23T07:10:10;16.27;;;5.60;;
12412;SDS011;13877;18.896;-99.222;2023-02-23T07:12:37;13.82;;;5.55;;
12412;SDS011;13877;18.896;-99.222;2023-02-23T07:15:04;23.92;;;5.25;;
12412;SDS011;13877;18.896;-99.222;2023-02-23T07:17:31;22.80;;;5.80;;
12412;SDS011;13877;18.896;-99.222;2023-02-23T07:19:58;17.33;;;4.65;;
12412;SDS011;13877;18.896;-99.222;2023-02-23T07:22:25;15.95;;;5.45;;
12412;SDS011;13877;18.896;-99.222;2023-02-23T07:24:55;22.83;;;5.70;;
12412;SDS011;13877;18.896;-99.222;2023-02-23T07:27:22;21.48;;;4.85;;
12412;SDS011;13877;18.896;-99.222;2023-02-23T07:29:49;19.80;;;5.47;;
12412;SDS011;13877;18.896;-99.222;2023-02-23T07:32:16;15.25;;;4.97;;
12412;SDS011;13877;18.896;-99.222;2023-02-23T07:34:43;16.23;;;5.18;;
12412;SDS011;13877;18.896;-99.222;2023-02-23T07:37:12;14.25;;;4.82;;
12412;SDS011;13877;18.896;-99.222;2023-02-23T07:39:39;15.02;;;4.97;;
12412;SDS011;13877;18.896;-99.222;2023-02-23T07:42:06;13.60;;;5.22;;
12412;SDS011;13877;18.896;-99.222;2023-02-23T07:44:34;14.80;;;5.20;;
12412;SDS011;13877;18.896;-99.222;2023-02-23T07:47:01;12.68;;;4.40;;
12412;SDS011;13877;18.896;-99.222;2023-02-23T07:49:28;19.98;;;5.57;;
12412;SDS011;13877;18.896;-99.222;2023-02-23T07:51:55;16.00;;;4.55;;
12412;SDS011;13877;18.896;-99.222;2023-02-23T07:54:22;16.08;;;5.13;;
12412;SDS011;13877;18.896;-99.222;2023-02-23T07:56:51;9.93;;;4.57;;
12412;SDS011;13877;18.896;-99.222;2023-02-23T07:59:18;10.18;;;4.13;;
12412;SDS011;13877;18.896;-99.222;2023-02-23T08:01:45;13.80;;;5.35;;
12412;SDS011;13877;18.896;-99.222;2023-02-23T08:04:12;19.80;;;5.10;;
12412;SDS011;13877;18.896;-99.222;2023-02-23T08:06:39;27.77;;;5.90;;
12412;SDS011;13877;18.896;-99.222;2023-02-23T08:09:06;14.82;;;4.93;;
12412;SDS011;13877;18.896;-99.222;2023-02-23T08:11:33;14.48;;;5.05;;
12412;SDS011;13877;18.896;-99.222;2023-02-23T08:14:00;11.02;;;4.38;;
12412;SDS011;13877;18.896;-99.222;2023-02-23T08:16:28;16.15;;;4.82;;
12412;SDS011;13877;18.896;-99.222;2023-02-23T08:18:56;16.52;;;5.05;;
12412;SDS011;13877;18.896;-99.222;2023-02-23T08:21:25;11.40;;;4.30;;
12412;SDS011;13877;18.896;-99.222;2023-02-23T08:23:54;15.45;;;4.80;;
12412;SDS011;13877;18.896;-99.222;2023-02-23T08:26:22;11.38;;;4.47;;
12412;SDS011;13877;18.896;-99.222;2023-02-23T08:28:50;16.40;;;4.97;;
12412;SDS011;13877;18.896;-99.222;2023-02-23T08:31:18;16.02;;;4.63;;
12412;SDS011;13877;18.896;-99.222;2023-02-23T08:33:48;27.88;;;4.70;;
12412;SDS011;13877;18.896;-99.222;2023-02-23T08:36:15;11.65;;;4.50;;
12412;SDS011;13877;18.896;-99.222;2023-02-23T08:38:42;11.93;;;4.22;;
12412;SDS011;13877;18.896;-99.222;2023-02-23T08:41:09;20.50;;;4.22;;
12412;SDS011;13877;18.896;-99.222;2023-02-23T08:43:36;12.20;;;4.95;;
12412;SDS011;13877;18.896;-99.222;2023-02-23T08:46:04;15.73;;;4.85;;
12412;SDS011;13877;18.896;-99.222;2023-02-23T08:48:32;9.32;;;4.07;;
12412;SDS011;13877;18.896;-99.222;2023-02-23T08:50:59;16.67;;;4.65;;
12412;SDS011;13877;18.896;-99.222;2023-02-23T08:53:27;18.10;;;5.10;;
12412;SDS011;13877;18.896;-99.222;2023-02-23T08:55:55;13.75;;;4.88;;
12412;SDS011;13877;18.896;-99.222;2023-02-23T08:58:23;18.23;;;5.25;;
12412;SDS011;13877;18.896;-99.222;2023-02-23T09:00:50;36.78;;;5.47;;
12412;SDS011;13877;18.896;-99.222;2023-02-23T09:03:21;11.85;;;4.93;;
12412;SDS011;13877;18.896;-99.222;2023-02-23T09:05:48;13.43;;;4.75;;
12412;SDS011;13877;18.896;-99.222;2023-02-23T09:08:15;12.15;;;4.28;;
12412;SDS011;13877;18.896;-99.222;2023-02-23T09:10:42;11.80;;;4.25;;
12412;SDS011;13877;18.896;-99.222;2023-02-23T09:13:10;11.57;;;4.95;;
12412;SDS011;13877;18.896;-99.222;2023-02-23T09:15:37;11.88;;;4.43;;
12412;SDS011;13877;18.896;-99.222;2023-02-23T09:18:06;10.38;;;4.60;;
12412;SDS011;13877;18.896;-99.222;2023-02-23T09:20:35;10.90;;;4.57;;
12412;SDS011;13877;18.896;-99.222;2023-02-23T09:23:01;10.85;;;4.65;;
12412;SDS011;13877;18.896;-99.222;2023-02-23T09:25:28;12.75;;;4.40;;
12412;SDS011;13877;18.896;-99.222;2023-02-23T09:27:56;15.80;;;4.75;;
12412;SDS011;13877;18.896;-99.222;2023-02-23T09:30:25;9.45;;;4.28;;
12412;SDS011;13877;18.896;-99.222;2023-02-23T09:32:53;13.05;;;4.00;;
12412;SDS011;13877;18.896;-99.222;2023-02-23T09:35:21;12.77;;;4.45;;
12412;SDS011;13877;18.896;-99.222;2023-02-23T09:37:50;10.77;;;4.03;;
12412;SDS011;13877;18.896;-99.222;2023-02-23T09:40:21;12.10;;;4.32;;
12412;SDS011;13877;18.896;-99.222;2023-02-23T09:50:52;15.45;;;4.80;;
12412;SDS011;13877;18.896;-99.222;2023-02-23T09:53:24;9.00;;;3.92;;
12412;SDS011;13877;18.896;-99.222;2023-02-23T09:58:23;14.13;;;4.40;;
12412;SDS011;13877;18.896;-99.222;2023-02-23T10:03:37;13.20;;;4.05;;
12412;SDS011;13877;18.896;-99.222;2023-02-23T10:06:12;11.07;;;4.63;;
12412;SDS011;13877;18.896;-99.222;2023-02-23T10:11:36;10.80;;;4.10;;
12412;SDS011;13877;18.896;-99.222;2023-02-23T10:17:04;10.43;;;4.15;;
12412;SDS011;13877;18.896;-99.222;2023-02-23T10:22:23;14.25;;;4.07;;
12412;SDS011;13877;18.896;-99.222;2023-02-23T10:27:29;18.83;;;4.47;;
12412;SDS011;13877;18.896;-99.222;2023-02-23T10:30:03;11.75;;;4.03;;
12412;SDS011;13877;18.896;-99.222;2023-02-23T10:32:56;7.82;;;3.90;;
12412;SDS011;13877;18.896;-99.222;2023-02-23T10:35:25;10.80;;;4.30;;
12412;SDS011;13877;18.896;-99.222;2023-02-23T10:37:54;12.05;;;4.28;;
12412;SDS011;13877;18.896;-99.222;2023-02-23T10:40:23;13.63;;;4.47;;
12412;SDS011;13877;18.896;-99.222;2023-02-23T10:42:53;21.88;;;5.00;;
12412;SDS011;13877;18.896;-99.222;2023-02-23T10:45:22;9.98;;;4.30;;
12412;SDS011;13877;18.896;-99.222;2023-02-23T10:47:57;15.48;;;4.57;;
12412;SDS011;13877;18.896;-99.222;2023-02-23T10:50:31;8.10;;;3.83;;
12412;SDS011;13877;18.896;-99.222;2023-02-23T10:55:45;11.00;;;4.15;;
12412;SDS011;13877;18.896;-99.222;2023-02-23T10:58:25;9.65;;;4.10;;
12412;SDS011;13877;18.896;-99.222;2023-02-23T11:00:53;11.15;;;4.28;;
12412;SDS011;13877;18.896;-99.222;2023-02-23T11:06:06;6.93;;;3.80;;
12412;SDS011;13877;18.896;-99.222;2023-02-23T11:09:21;9.27;;;3.67;;
12412;SDS011;13877;18.896;-99.222;2023-02-23T11:11:57;12.48;;;3.85;;
12412;SDS011;13877;18.896;-99.222;2023-02-23T11:14:26;13.07;;;3.80;;
12412;SDS011;13877;18.896;-99.222;2023-02-23T11:16:56;9.73;;;4.30;;
12412;SDS011;13877;18.896;-99.222;2023-02-23T11:21:54;16.40;;;4.65;;
12412;SDS011;13877;18.896;-99.222;2023-02-23T11:24:23;12.50;;;3.90;;
12412;SDS011;13877;18.896;-99.222;2023-02-23T11:26:58;14.90;;;4.97;;
12412;SDS011;13877;18.896;-99.222;2023-02-23T11:32:07;10.38;;;4.80;;
12412;SDS011;13877;18.896;-99.222;2023-02-23T11:34:41;16.40;;;5.60;;
12412;SDS011;13877;18.896;-99.222;2023-02-23T11:37:18;17.33;;;4.90;;
12412;SDS011;13877;18.896;-99.222;2023-02-23T11:45:03;21.58;;;5.22;;
12412;SDS011;13877;18.896;-99.222;2023-02-23T11:47:32;13.10;;;5.07;;
12412;SDS011;13877;18.896;-99.222;2023-02-23T11:50:05;21.98;;;5.63;;
12412;SDS011;13877;18.896;-99.222;2023-02-23T11:52:33;14.15;;;5.43;;
12412;SDS011;13877;18.896;-99.222;2023-02-23T11:55:03;14.35;;;5.53;;
12412;SDS011;13877;18.896;-99.222;2023-02-23T11:57:35;22.75;;;5.60;;
12412;SDS011;13877;18.896;-99.222;2023-02-23T12:00:09;15.75;;;5.30;;
12412;SDS011;13877;18.896;-99.222;2023-02-23T12:02:49;18.15;;;5.65;;
12412;SDS011;13877;18.896;-99.222;2023-02-23T12:10:23;21.05;;;6.35;;
12412;SDS011;13877;18.896;-99.222;2023-02-23T12:13:03;14.45;;;6.22;;
12412;SDS011;13877;18.896;-99.222;2023-02-23T12:18:56;19.67;;;5.35;;
12412;SDS011;13877;18.896;-99.222;2023-02-23T12:21:49;19.80;;;6.10;;
12412;SDS011;13877;18.896;-99.222;2023-02-23T12:24:40;19.45;;;5.35;;
12412;SDS011;13877;18.896;-99.222;2023-02-23T12:27:11;12.35;;;5.43;;
12412;SDS011;13877;18.896;-99.222;2023-02-23T12:32:54;13.18;;;5.95;;
12412;SDS011;13877;18.896;-99.222;2023-02-23T12:35:31;16.73;;;5.47;;
12412;SDS011;13877;18.896;-99.222;2023-02-23T12:47:31;10.77;;;5.18;;
12412;SDS011;13877;18.896;-99.222;2023-02-23T12:50:25;18.75;;;6.57;;
12412;SDS011;13877;18.896;-99.222;2023-02-23T12:53:22;18.02;;;5.75;;
12412;SDS011;13877;18.896;-99.222;2023-02-23T12:55:57;15.00;;;6.32;;
12412;SDS011;13877;18.896;-99.222;2023-02-23T13:01:21;19.15;;;7.88;;
12412;SDS011;13877;18.896;-99.222;2023-02-23T13:07:28;17.58;;;6.28;;
12412;SDS011;13877;18.896;-99.222;2023-02-23T13:18:13;22.58;;;6.47;;
12412;SDS011;13877;18.896;-99.222;2023-02-23T13:21:19;24.67;;;7.45;;
12412;SDS011;13877;18.896;-99.222;2023-02-23T13:23:57;26.27;;;7.10;;
12412;SDS011;13877;18.896;-99.222;2023-02-23T13:26:41;15.77;;;6.68;;
12412;SDS011;13877;18.896;-99.222;2023-02-23T13:31:59;14.68;;;6.60;;
12412;SDS011;13877;18.896;-99.222;2023-02-23T13:34:28;24.55;;;6.93;;
12412;SDS011;13877;18.896;-99.222;2023-02-23T13:36:59;21.27;;;7.43;;
12412;SDS011;13877;18.896;-99.222;2023-02-23T13:48:05;28.45;;;7.13;;
12412;SDS011;13877;18.896;-99.222;2023-02-23T13:56:14;29.63;;;7.25;;
12412;SDS011;13877;18.896;-99.222;2023-02-23T13:58:45;23.48;;;6.95;;
12412;SDS011;13877;18.896;-99.222;2023-02-23T14:01:32;22.02;;;6.95;;
12412;SDS011;13877;18.896;-99.222;2023-02-23T14:04:04;33.15;;;7.88;;
12412;SDS011;13877;18.896;-99.222;2023-02-23T14:06:39;16.98;;;6.43;;
12412;SDS011;13877;18.896;-99.222;2023-02-23T14:09:20;19.80;;;6.25;;
12412;SDS011;13877;18.896;-99.222;2023-02-23T14:38:50;13.20;;;4.32;;
12412;SDS011;13877;18.896;-99.222;2023-02-23T14:44:20;18.02;;;3.95;;
12412;SDS011;13877;18.896;-99.222;2023-02-23T14:47:38;9.23;;;4.60;;
12412;SDS011;13877;18.896;-99.222;2023-02-23T14:49:43;18.20;;;4.63;;
12412;SDS011;13877;18.896;-99.222;2023-02-23T14:52:34;24.83;;;5.82;;
12412;SDS011;13877;18.896;-99.222;2023-02-23T14:55:12;22.73;;;16.48;;
12412;SDS011;13877;18.896;-99.222;2023-02-23T14:57:45;17.42;;;4.65;;
12412;SDS011;13877;18.896;-99.222;2023-02-23T15:05:43;14.70;;;4.60;;
12412;SDS011;13877;18.896;-99.222;2023-02-23T15:08:19;15.23;;;5.10;;
12412;SDS011;13877;18.896;-99.222;2023-02-23T15:10:49;14.73;;;4.57;;
12412;SDS011;13877;18.896;-99.222;2023-02-23T15:13:34;10.45;;;4.78;;
12412;SDS011;13877;18.896;-99.222;2023-02-23T15:16:04;17.98;;;4.35;;
12412;SDS011;13877;18.896;-99.222;2023-02-23T15:18:41;17.20;;;5.60;;
12412;SDS011;13877;18.896;-99.222;2023-02-23T15:21:11;20.13;;;5.70;;
12412;SDS011;13877;18.896;-99.222;2023-02-23T15:23:44;11.38;;;3.38;;
12412;SDS011;13877;18.896;-99.222;2023-02-23T15:26:27;7.65;;;3.72;;
12412;SDS011;13877;18.896;-99.222;2023-02-23T15:29:18;13.13;;;4.65;;
12412;SDS011;13877;18.896;-99.222;2023-02-23T15:31:50;10.88;;;4.68;;
12412;SDS011;13877;18.896;-99.222;2023-02-23T15:37:04;15.40;;;4.18;;
12412;SDS011;13877;18.896;-99.222;2023-02-23T15:39:43;10.30;;;4.28;;
12412;SDS011;13877;18.896;-99.222;2023-02-23T15:42:24;7.97;;;4.28;;
12412;SDS011;13877;18.896;-99.222;2023-02-23T15:45:02;12.90;;;4.28;;
12412;SDS011;13877;18.896;-99.222;2023-02-23T15:47:40;13.55;;;4.07;;
12412;SDS011;13877;18.896;-99.222;2023-02-23T15:50:17;13.55;;;4.95;;
12412;SDS011;13877;18.896;-99.222;2023-02-23T15:52:52;8.00;;;4.20;;
12412;SDS011;13877;18.896;-99.222;2023-02-23T15:55:32;15.02;;;4.60;;
12412;SDS011;13877;18.896;-99.222;2023-02-23T15:58:12;10.38;;;3.55;;
12412;SDS011;13877;18.896;-99.222;2023-02-23T16:01:07;6.63;;;3.88;;
12412;SDS011;13877;18.896;-99.222;2023-02-23T16:03:59;20.80;;;3.72;;
12412;SDS011;13877;18.896;-99.222;2023-02-23T16:06:49;12.00;;;3.78;;
12412;SDS011;13877;18.896;-99.222;2023-02-23T16:09:37;21.88;;;4.30;;
12412;SDS011;13877;18.896;-99.222;2023-02-23T16:12:10;16.55;;;4.50;;
12412;SDS011;13877;18.896;-99.222;2023-02-23T16:17:43;10.00;;;4.85;;
12412;SDS011;13877;18.896;-99.222;2023-02-23T16:23:04;15.68;;;4.78;;
12412;SDS011;13877;18.896;-99.222;2023-02-23T16:25:36;14.10;;;5.53;;
12412;SDS011;13877;18.896;-99.222;2023-02-23T16:28:14;20.38;;;5.90;;
12412;SDS011;13877;18.896;-99.222;2023-02-23T16:31:18;19.58;;;6.05;;
12412;SDS011;13877;18.896;-99.222;2023-02-23T16:33:43;12.70;;;5.70;;
12412;SDS011;13877;18.896;-99.222;2023-02-23T16:36:19;14.35;;;5.95;;
12412;SDS011;13877;18.896;-99.222;2023-02-23T16:41:26;15.27;;;5.72;;
12412;SDS011;13877;18.896;-99.222;2023-02-23T16:43:57;14.40;;;6.10;;
12412;SDS011;13877;18.896;-99.222;2023-02-23T16:46:29;12.45;;;5.13;;
12412;SDS011;13877;18.896;-99.222;2023-02-23T16:49:07;15.68;;;5.72;;
12412;SDS011;13877;18.896;-99.222;2023-02-23T16:51:38;12.95;;;5.88;;
12412;SDS011;13877;18.896;-99.222;2023-02-23T16:54:05;16.35;;;6.15;;
12412;SDS011;13877;18.896;-99.222;2023-02-23T16:56:34;14.23;;;5.97;;
12412;SDS011;13877;18.896;-99.222;2023-02-23T16:59:09;13.65;;;6.07;;
12412;SDS011;13877;18.896;-99.222;2023-02-23T17:01:42;15.00;;;4.57;;
12412;SDS011;13877;18.896;-99.222;2023-02-23T17:04:15;11.48;;;5.00;;
12412;SDS011;13877;18.896;-99.222;2023-02-23T17:06:46;13.93;;;4.45;;
12412;SDS011;13877;18.896;-99.222;2023-02-23T17:09:23;18.20;;;4.35;;
12412;SDS011;13877;18.896;-99.222;2023-02-23T17:11:53;16.33;;;4.73;;
12412;SDS011;13877;18.896;-99.222;2023-02-23T17:14:25;11.93;;;5.00;;
12412;SDS011;13877;18.896;-99.222;2023-02-23T17:16:57;22.80;;;6.00;;
12412;SDS011;13877;18.896;-99.222;2023-02-23T17:19:26;15.65;;;5.18;;
12412;SDS011;13877;18.896;-99.222;2023-02-23T17:21:53;24.70;;;4.95;;
12412;SDS011;13877;18.896;-99.222;2023-02-23T17:24:20;11.02;;;4.97;;
12412;SDS011;13877;18.896;-99.222;2023-02-23T17:26:51;15.40;;;5.13;;
12412;SDS011;13877;18.896;-99.222;2023-02-23T17:29:19;10.25;;;4.57;;
12412;SDS011;13877;18.896;-99.222;2023-02-23T17:31:47;14.77;;;4.20;;
12412;SDS011;13877;18.896;-99.222;2023-02-23T17:34:15;14.50;;;4.50;;
12412;SDS011;13877;18.896;-99.222;2023-02-23T17:36:42;10.63;;;4.38;;
12412;SDS011;13877;18.896;-99.222;2023-02-23T17:39:09;15.30;;;5.18;;
12412;SDS011;13877;18.896;-99.222;2023-02-23T17:41:39;12.02;;;4.07;;
12412;SDS011;13877;18.896;-99.222;2023-02-23T17:44:06;13.48;;;4.25;;
12412;SDS011;13877;18.896;-99.222;2023-02-23T17:46:33;17.25;;;5.43;;
12412;SDS011;13877;18.896;-99.222;2023-02-23T17:49:01;8.95;;;4.45;;
12412;SDS011;13877;18.896;-99.222;2023-02-23T17:51:29;14.38;;;4.47;;